Time;durP1;ratioP1;P1;durP2;ratioP2;P2;SDS_P1;SDS_P2;PMS_P1;PMS_P2;Temp;Humidity;BMP_temperature;BMP_pressure;BME280_temperature;BME280_humidity;BME280_pressure;Samples;Min_cycle;Max_cycle;Signal;HPM_P1;HPM_P2
2022/01/03 00:01:06;;;;;;;39.17;20.33;;;;;;;;;;5114796;27;20020;-73
2022/01/03 00:03:32;;;;;;;35.00;20.20;;;;;;;;;;5114611;27;20079;-73
2022/01/03 00:05:59;;;;;;;33.30;18.33;;;;;;;;;;5111560;27;20508;-73
2022/01/03 00:08:25;;;;;;;33.92;19.90;;;;;;;;;;5114768;27;20038;-73
2022/01/03 00:10:53;;;;;;;35.65;18.05;;;;;;;;;;5115370;27;20385;-73
2022/01/03 00:13:21;;;;;;;35.53;18.58;;;;;;;;;;5114253;27;20026;-73
2022/01/03 00:15:47;;;;;;;37.60;21.10;;;;;;;;;;5114407;27;20024;-73
2022/01/03 00:18:13;;;;;;;34.42;20.52;;;;;;;;;;5114559;27;20521;-73
2022/01/03 00:20:40;;;;;;;39.33;20.20;;;;;;;;;;5110739;27;20501;-73
2022/01/03 00:23:08;;;;;;;35.72;20.50;;;;;;;;;;5117002;27;20038;-73
2022/01/03 00:25:42;;;;;;;38.50;22.00;;;;;;;;;;5114184;27;20026;-73
2022/01/03 00:28:16;;;;;;;37.95;20.83;;;;;;;;;;5113825;27;20035;-73
2022/01/03 00:30:44;;;;;;;39.97;21.75;;;;;;;;;;5113619;27;20046;-73
2022/01/03 00:33:11;;;;;;;44.30;22.45;;;;;;;;;;5112374;27;20022;-73
2022/01/03 00:35:38;;;;;;;40.83;22.73;;;;;;;;;;5093222;28;20026;-73
2022/01/03 00:38:07;;;;;;;35.05;18.92;;;;;;;;;;5116427;27;20020;-73
2022/01/03 00:40:34;;;;;;;35.45;19.77;;;;;;;;;;5113121;27;20105;-73
2022/01/03 00:43:00;;;;;;;35.40;19.13;;;;;;;;;;5113541;27;20011;-73
2022/01/03 00:45:26;;;;;;;35.40;20.73;;;;;;;;;;5108669;27;20034;-73
2022/01/03 00:47:54;;;;;;;36.88;20.13;;;;;;;;;;5106510;28;20109;-73
2022/01/03 00:50:22;;;;;;;42.72;23.35;;;;;;;;;;5114943;27;20393;-73
2022/01/03 00:52:49;;;;;;;42.05;24.85;;;;;;;;;;5115994;27;20486;-73
2022/01/03 00:55:16;;;;;;;47.10;26.60;;;;;;;;;;5113611;27;20020;-73
2022/01/03 00:57:55;;;;;;;44.05;24.35;;;;;;;;;;5114941;27;20019;-73
2022/01/03 01:00:21;;;;;;;46.92;27.30;;;;;;;;;;5112813;27;20075;-73
2022/01/03 01:02:56;;;;;;;48.47;26.40;;;;;;;;;;5120879;27;20081;-73
2022/01/03 01:05:23;;;;;;;46.45;26.77;;;;;;;;;;5114408;28;20036;-73
2022/01/03 01:07:53;;;;;;;49.33;26.25;;;;;;;;;;5114209;27;20032;-73
2022/01/03 01:10:19;;;;;;;41.65;24.15;;;;;;;;;;5112955;27;20101;-73
2022/01/03 01:12:46;;;;;;;47.17;25.33;;;;;;;;;;5113324;28;20028;-73
2022/01/03 01:15:14;;;;;;;45.65;24.25;;;;;;;;;;5112415;28;20011;-73
2022/01/03 01:17:41;;;;;;;50.75;26.25;;;;;;;;;;5109507;28;20102;-73
2022/01/03 01:20:09;;;;;;;46.05;26.08;;;;;;;;;;5116128;28;20034;-73
2022/01/03 01:22:36;;;;;;;53.38;25.60;;;;;;;;;;5113183;28;20015;-73
2022/01/03 01:25:24;;;;;;;44.83;26.13;;;;;;;;;;5113365;28;20030;-73
2022/01/03 01:27:53;;;;;;;44.72;24.58;;;;;;;;;;5113183;28;20080;-73
2022/01/03 01:30:20;;;;;;;42.13;22.90;;;;;;;;;;5113076;28;20011;-73
2022/01/03 01:32:48;;;;;;;34.38;20.08;;;;;;;;;;5108353;28;20522;-73
2022/01/03 01:35:15;;;;;;;31.58;18.75;;;;;;;;;;5115969;28;20061;-73
2022/01/03 01:37:43;;;;;;;34.83;18.23;;;;;;;;;;5114807;28;20026;-73
2022/01/03 01:40:11;;;;;;;33.85;18.73;;;;;;;;;;5112966;28;20028;-73
2022/01/03 01:42:37;;;;;;;30.95;18.80;;;;;;;;;;5112657;28;20023;-73
2022/01/03 01:45:08;;;;;;;33.58;18.27;;;;;;;;;;5110809;28;20026;-74
2022/01/03 01:47:41;;;;;;;31.85;18.25;;;;;;;;;;5110514;28;20054;-73
2022/01/03 01:50:09;;;;;;;30.85;16.48;;;;;;;;;;5111373;28;20034;-73
2022/01/03 01:52:37;;;;;;;31.30;17.48;;;;;;;;;;5111444;28;20027;-74
2022/01/03 01:55:08;;;;;;;27.27;16.92;;;;;;;;;;5112097;28;20024;-73
2022/01/03 01:57:48;;;;;;;26.85;15.63;;;;;;;;;;5112201;28;20406;-73
2022/01/03 02:00:16;;;;;;;27.42;16.80;;;;;;;;;;5111877;28;20500;-73
2022/01/03 02:02:45;;;;;;;28.90;16.67;;;;;;;;;;5094440;28;20038;-73
2022/01/03 02:05:19;;;;;;;26.33;15.43;;;;;;;;;;5115905;28;20034;-73
2022/01/03 02:08:02;;;;;;;42.88;16.52;;;;;;;;;;5113174;28;20031;-73
2022/01/03 02:10:34;;;;;;;33.63;16.30;;;;;;;;;;5111752;28;20497;-73
2022/01/03 02:13:01;;;;;;;31.42;14.98;;;;;;;;;;5094047;28;20028;-73
2022/01/03 02:15:27;;;;;;;69.40;19.55;;;;;;;;;;5112783;28;20031;-74
2022/01/03 02:17:54;;;;;;;101.60;20.80;;;;;;;;;;5111759;28;20036;-73
2022/01/03 02:20:22;;;;;;;76.30;20.38;;;;;;;;;;5114509;28;20489;-73
2022/01/03 02:22:48;;;;;;;26.00;16.27;;;;;;;;;;5114346;28;20032;-73
2022/01/03 02:25:16;;;;;;;29.98;16.25;;;;;;;;;;5111526;28;20019;-73
2022/01/03 02:27:43;;;;;;;26.25;16.02;;;;;;;;;;5111455;28;20502;-74
2022/01/03 02:30:11;;;;;;;26.52;15.88;;;;;;;;;;5110965;28;20019;-73
2022/01/03 02:32:37;;;;;;;33.08;16.90;;;;;;;;;;5112256;28;20032;-74
2022/01/03 02:35:04;;;;;;;58.28;18.40;;;;;;;;;;5096233;28;20037;-73
2022/01/03 02:37:31;;;;;;;34.33;16.27;;;;;;;;;;5096034;28;20020;-73
2022/01/03 02:39:58;;;;;;;34.85;16.75;;;;;;;;;;5110796;28;20375;-73
2022/01/03 02:42:25;;;;;;;38.33;18.17;;;;;;;;;;5111251;28;20020;-73
2022/01/03 02:45:05;;;;;;;34.13;17.70;;;;;;;;;;5110953;28;20052;-73
2022/01/03 02:47:32;;;;;;;38.72;18.98;;;;;;;;;;5131101;27;20043;-73
2022/01/03 02:49:59;;;;;;;37.63;18.88;;;;;;;;;;5133370;27;20031;-73
2022/01/03 02:52:25;;;;;;;31.00;16.48;;;;;;;;;;5131071;27;20485;-73
2022/01/03 02:54:52;;;;;;;31.45;17.30;;;;;;;;;;5132660;27;20018;-73
2022/01/03 02:57:24;;;;;;;30.70;16.42;;;;;;;;;;5131566;27;20031;-73
2022/01/03 02:59:58;;;;;;;27.50;16.52;;;;;;;;;;5131496;27;20028;-73
2022/01/03 03:02:25;;;;;;;30.33;17.00;;;;;;;;;;5132996;27;20015;-73
2022/01/03 03:04:58;;;;;;;32.08;16.73;;;;;;;;;;5131891;27;20370;-73
2022/01/03 03:07:26;;;;;;;33.88;16.88;;;;;;;;;;5131029;27;20019;-73
2022/01/03 03:09:52;;;;;;;33.92;15.95;;;;;;;;;;5131349;27;20029;-72
2022/01/03 03:12:19;;;;;;;26.60;15.75;;;;;;;;;;5131070;27;20023;-73
2022/01/03 03:14:46;;;;;;;25.85;14.10;;;;;;;;;;5131092;27;20022;-73
2022/01/03 03:17:12;;;;;;;23.88;13.75;;;;;;;;;;5116417;27;20029;-73
2022/01/03 03:19:51;;;;;;;23.83;13.85;;;;;;;;;;5130945;27;20019;-73
2022/01/03 03:22:18;;;;;;;23.90;14.32;;;;;;;;;;5131060;27;20035;-73
2022/01/03 03:24:44;;;;;;;27.02;15.07;;;;;;;;;;5130687;27;20034;-73
2022/01/03 03:27:11;;;;;;;28.00;14.45;;;;;;;;;;5130874;27;20019;-73
2022/01/03 03:29:44;;;;;;;33.13;15.95;;;;;;;;;;5131637;27;20036;-73
2022/01/03 03:32:11;;;;;;;26.90;15.00;;;;;;;;;;5134613;27;20493;-73
2022/01/03 03:34:37;;;;;;;39.10;16.63;;;;;;;;;;5132293;27;20020;-73
2022/01/03 03:37:04;;;;;;;33.55;16.50;;;;;;;;;;5130519;27;20091;-73
2022/01/03 03:39:33;;;;;;;34.08;17.52;;;;;;;;;;5130604;27;20028;-73
2022/01/03 03:42:01;;;;;;;43.53;13.57;;;;;;;;;;5130293;27;20018;-73
2022/01/03 03:44:27;;;;;;;31.50;14.23;;;;;;;;;;5132994;27;20524;-73
2022/01/03 03:46:54;;;;;;;31.48;14.10;;;;;;;;;;5113322;27;20049;-73
2022/01/03 03:49:20;;;;;;;40.88;17.77;;;;;;;;;;5130220;27;20084;-73
2022/01/03 03:51:47;;;;;;;45.50;15.98;;;;;;;;;;5130410;27;20366;-73
2022/01/03 03:54:13;;;;;;;21.42;11.77;;;;;;;;;;5130579;27;20503;-73
2022/01/03 03:56:40;;;;;;;24.77;12.18;;;;;;;;;;5130692;27;20019;-73
2022/01/03 03:59:06;;;;;;;20.55;12.52;;;;;;;;;;5115139;27;20031;-74
2022/01/03 04:01:32;;;;;;;22.83;12.52;;;;;;;;;;5115029;27;20027;-73
2022/01/03 04:03:59;;;;;;;20.38;12.65;;;;;;;;;;5130061;27;20019;-73
2022/01/03 04:06:25;;;;;;;23.27;12.65;;;;;;;;;;5130026;27;20025;-73
2022/01/03 04:08:51;;;;;;;105.07;15.15;;;;;;;;;;5129851;27;20510;-73
2022/01/03 04:11:18;;;;;;;46.80;14.27;;;;;;;;;;5132386;27;20025;-74
2022/01/03 04:13:44;;;;;;;108.97;16.15;;;;;;;;;;5113307;27;20035;-73
2022/01/03 04:16:12;;;;;;;45.63;15.60;;;;;;;;;;5129715;27;20022;-73
2022/01/03 04:18:38;;;;;;;41.28;15.60;;;;;;;;;;5130066;27;20500;-73
2022/01/03 04:21:05;;;;;;;25.08;13.68;;;;;;;;;;5130123;27;20494;-73
2022/01/03 04:23:31;;;;;;;30.08;14.20;;;;;;;;;;5131977;27;20037;-73
2022/01/03 04:25:57;;;;;;;44.08;13.38;;;;;;;;;;5131109;27;20031;-73
2022/01/03 04:28:24;;;;;;;46.55;14.43;;;;;;;;;;5114271;27;20039;-73
2022/01/03 04:30:51;;;;;;;46.58;13.52;;;;;;;;;;5129599;27;20030;-73
2022/01/03 04:33:17;;;;;;;21.13;12.95;;;;;;;;;;5129801;27;20027;-73
2022/01/03 04:35:44;;;;;;;22.23;12.70;;;;;;;;;;5130067;27;20440;-73
2022/01/03 04:38:10;;;;;;;87.38;14.73;;;;;;;;;;5133367;27;20035;-73
2022/01/03 04:40:37;;;;;;;82.57;14.73;;;;;;;;;;5129179;27;20049;-73
2022/01/03 04:43:04;;;;;;;40.70;15.55;;;;;;;;;;5129792;27;20033;-73
2022/01/03 04:45:31;;;;;;;53.88;14.85;;;;;;;;;;5129032;27;20499;-73
2022/01/03 04:47:57;;;;;;;34.20;15.02;;;;;;;;;;5112336;27;20456;-73
2022/01/03 04:50:23;;;;;;;62.13;15.20;;;;;;;;;;5131637;27;20511;-73
2022/01/03 04:52:50;;;;;;;41.60;15.30;;;;;;;;;;5132085;27;20027;-73
2022/01/03 04:55:16;;;;;;;34.05;14.60;;;;;;;;;;5128860;27;20020;-73
2022/01/03 04:57:42;;;;;;;26.58;14.30;;;;;;;;;;5129102;27;20016;-73
2022/01/03 05:00:10;;;;;;;27.75;14.73;;;;;;;;;;5129345;27;20071;-73
2022/01/03 05:02:37;;;;;;;43.85;17.40;;;;;;;;;;5130606;27;20019;-73
2022/01/03 05:05:04;;;;;;;57.17;16.63;;;;;;;;;;5131963;27;20031;-73
2022/01/03 05:07:30;;;;;;;56.72;17.15;;;;;;;;;;5129027;27;20007;-73
2022/01/03 05:09:57;;;;;;;44.90;16.85;;;;;;;;;;5128775;27;20392;-73
2022/01/03 05:12:23;;;;;;;32.58;14.93;;;;;;;;;;5129205;27;20087;-73
2022/01/03 05:14:50;;;;;;;33.17;16.60;;;;;;;;;;5128869;28;20023;-73
2022/01/03 05:17:16;;;;;;;50.42;16.13;;;;;;;;;;5132030;28;20026;-73
2022/01/03 05:19:42;;;;;;;67.50;16.60;;;;;;;;;;5129405;28;20030;-73
2022/01/03 05:22:10;;;;;;;53.70;16.17;;;;;;;;;;5128586;28;20374;-73
2022/01/03 05:24:37;;;;;;;67.40;17.80;;;;;;;;;;5128237;28;20033;-73
2022/01/03 05:27:05;;;;;;;71.95;18.02;;;;;;;;;;5112930;27;20026;-73
2022/01/03 05:29:32;;;;;;;90.22;18.08;;;;;;;;;;5134249;27;20046;-73
2022/01/03 05:31:58;;;;;;;94.47;18.83;;;;;;;;;;5118223;27;20030;-73
2022/01/03 05:34:25;;;;;;;95.82;20.30;;;;;;;;;;5133101;27;20019;-73
2022/01/03 05:36:51;;;;;;;66.03;18.33;;;;;;;;;;5132807;27;20541;-73
2022/01/03 05:39:18;;;;;;;59.85;17.23;;;;;;;;;;5132824;27;20499;-73
2022/01/03 05:41:44;;;;;;;72.68;16.17;;;;;;;;;;5117441;27;20023;-73
2022/01/03 05:44:10;;;;;;;75.63;16.40;;;;;;;;;;5136380;27;20035;-73
2022/01/03 05:46:37;;;;;;;82.43;13.50;;;;;;;;;;5132263;27;20046;-73
2022/01/03 05:49:06;;;;;;;85.30;16.52;;;;;;;;;;5132648;27;20054;-73
2022/01/03 05:51:32;;;;;;;67.18;18.52;;;;;;;;;;5132193;27;20016;-76
2022/01/03 05:53:58;;;;;;;72.22;19.88;;;;;;;;;;5133004;27;20019;-73
2022/01/03 05:56:25;;;;;;;111.95;19.05;;;;;;;;;;5135008;27;20045;-73
2022/01/03 05:58:51;;;;;;;70.20;18.60;;;;;;;;;;5133819;27;20037;-73
2022/01/03 06:01:21;;;;;;;68.72;22.30;;;;;;;;;;5132402;27;20049;-73
2022/01/03 06:03:47;;;;;;;55.40;20.08;;;;;;;;;;5132283;27;20422;-73
2022/01/03 06:08:40;;;;;;;45.05;20.42;;;;;;;;;;5133530;27;20031;-73
2022/01/03 06:11:06;;;;;;;80.80;21.23;;;;;;;;;;5135879;27;20416;-73
2022/01/03 06:13:32;;;;;;;50.28;19.90;;;;;;;;;;5132543;27;20023;-73
2022/01/03 06:15:59;;;;;;;80.78;21.17;;;;;;;;;;5116807;27;20031;-73
2022/01/03 06:18:25;;;;;;;68.00;19.50;;;;;;;;;;5132152;27;20019;-72
2022/01/03 06:20:52;;;;;;;50.08;19.88;;;;;;;;;;5132098;27;20015;-73
2022/01/03 06:23:20;;;;;;;60.67;20.75;;;;;;;;;;5135540;27;20034;-73
2022/01/03 06:25:46;;;;;;;64.72;23.65;;;;;;;;;;5132857;27;20482;-73
2022/01/03 06:28:13;;;;;;;74.40;21.80;;;;;;;;;;5131998;27;20031;-73
2022/01/03 06:30:40;;;;;;;105.20;22.75;;;;;;;;;;5131644;27;20049;-73
2022/01/03 06:33:07;;;;;;;87.32;23.17;;;;;;;;;;5132136;27;20519;-74
2022/01/03 06:35:33;;;;;;;129.65;22.38;;;;;;;;;;5115059;27;20045;-73
2022/01/03 06:38:00;;;;;;;103.78;27.52;;;;;;;;;;5115164;27;20031;-73
2022/01/03 06:40:27;;;;;;;60.47;22.40;;;;;;;;;;5131835;27;20016;-73
2022/01/03 06:42:54;;;;;;;82.63;22.85;;;;;;;;;;5131723;27;20027;-73
2022/01/03 06:45:21;;;;;;;92.82;24.08;;;;;;;;;;5131291;27;20007;-73
2022/01/03 06:47:49;;;;;;;67.45;19.83;;;;;;;;;;5132983;27;20452;-73
2022/01/03 06:50:15;;;;;;;61.08;19.90;;;;;;;;;;5134769;27;20027;-72
2022/01/03 06:52:42;;;;;;;60.55;19.85;;;;;;;;;;5133687;27;20025;-73
2022/01/03 06:55:08;;;;;;;50.30;19.05;;;;;;;;;;5131974;27;20069;-73
2022/01/03 06:57:35;;;;;;;53.33;21.05;;;;;;;;;;5131341;27;20011;-73
2022/01/03 07:00:01;;;;;;;50.45;18.83;;;;;;;;;;5131844;27;20024;-73
2022/01/03 07:02:28;;;;;;;84.25;18.60;;;;;;;;;;5134072;27;20021;-73
2022/01/03 07:04:55;;;;;;;78.57;23.88;;;;;;;;;;5132083;27;20035;-73
2022/01/03 07:07:22;;;;;;;56.20;23.35;;;;;;;;;;5131330;27;20022;-73
2022/01/03 07:09:48;;;;;;;57.78;18.23;;;;;;;;;;5129917;27;20513;-73
2022/01/03 07:12:16;;;;;;;55.05;23.38;;;;;;;;;;5128716;27;20503;-73
2022/01/03 07:19:57;;;;;;;42.40;20.17;;;;;;;;;;5119138;27;20029;-74
2022/01/03 07:22:23;;;;;;;47.63;17.70;;;;;;;;;;5128920;27;20037;-74
2022/01/03 07:24:51;;;;;;;39.50;17.88;;;;;;;;;;5128209;27;20031;-73
2022/01/03 07:27:18;;;;;;;56.22;17.70;;;;;;;;;;5130407;27;20034;-73
2022/01/03 07:29:44;;;;;;;50.30;17.33;;;;;;;;;;5129630;27;20038;-73
2022/01/03 07:32:11;;;;;;;42.05;14.82;;;;;;;;;;5132881;27;20019;-73
2022/01/03 07:34:37;;;;;;;42.88;13.73;;;;;;;;;;5127834;27;20091;-73
2022/01/03 07:37:04;;;;;;;58.40;15.05;;;;;;;;;;5128708;27;20031;-73
2022/01/03 07:39:31;;;;;;;75.47;34.22;;;;;;;;;;5131819;27;20023;-73
2022/01/03 07:42:00;;;;;;;29.60;14.52;;;;;;;;;;5121202;27;20024;-74
2022/01/03 07:44:26;;;;;;;36.88;17.30;;;;;;;;;;5131730;27;20068;-73
2022/01/03 07:46:54;;;;;;;44.47;22.75;;;;;;;;;;5109491;27;20037;-73
2022/01/03 07:49:21;;;;;;;45.50;17.38;;;;;;;;;;5127685;27;20123;-72
2022/01/03 07:51:48;;;;;;;66.93;14.73;;;;;;;;;;5128566;27;20023;-73
2022/01/03 07:54:14;;;;;;;59.58;16.83;;;;;;;;;;5123889;27;20375;-73
2022/01/03 07:56:40;;;;;;;44.25;14.63;;;;;;;;;;5129551;27;20038;-71
2022/01/03 07:59:07;;;;;;;44.25;16.83;;;;;;;;;;5131604;27;20039;-71
2022/01/03 08:01:33;;;;;;;47.53;16.63;;;;;;;;;;5128729;27;20021;-72
2022/01/03 08:04:00;;;;;;;33.78;15.80;;;;;;;;;;5127672;27;20616;-72
2022/01/03 08:06:27;;;;;;;38.05;14.02;;;;;;;;;;5129984;27;20515;-73
2022/01/03 08:08:54;;;;;;;40.15;14.93;;;;;;;;;;5129150;27;20424;-73
2022/01/03 08:11:20;;;;;;;49.20;15.82;;;;;;;;;;5113338;27;20030;-73
2022/01/03 08:13:46;;;;;;;60.60;16.17;;;;;;;;;;5140087;27;20011;-73
2022/01/03 08:16:13;;;;;;;43.92;15.70;;;;;;;;;;5126110;27;20020;-74
2022/01/03 08:18:39;;;;;;;59.60;17.55;;;;;;;;;;5123409;27;20083;-74
2022/01/03 08:21:05;;;;;;;56.25;18.00;;;;;;;;;;5128212;27;20033;-74
2022/01/03 08:23:32;;;;;;;47.17;18.00;;;;;;;;;;5130267;27;20022;-74
2022/01/03 08:25:58;;;;;;;47.17;17.63;;;;;;;;;;5130197;27;20019;-74
2022/01/03 08:28:25;;;;;;;65.53;19.55;;;;;;;;;;5127590;27;20038;-74
2022/01/03 08:30:51;;;;;;;50.53;15.70;;;;;;;;;;5128422;27;20037;-74
2022/01/03 08:33:17;;;;;;;64.90;16.92;;;;;;;;;;5127848;27;20038;-73
2022/01/03 08:35:44;;;;;;;50.58;17.80;;;;;;;;;;5128725;27;20388;-74
2022/01/03 08:38:10;;;;;;;78.35;20.13;;;;;;;;;;5131321;27;20026;-74
2022/01/03 08:40:36;;;;;;;53.08;22.05;;;;;;;;;;5127901;27;20035;-74
2022/01/03 08:43:02;;;;;;;76.75;21.40;;;;;;;;;;5127303;27;20027;-74
2022/01/03 08:45:29;;;;;;;48.13;20.60;;;;;;;;;;5109875;27;20481;-74
2022/01/03 08:47:55;;;;;;;57.17;22.88;;;;;;;;;;5109213;27;20080;-74
2022/01/03 08:50:22;;;;;;;70.05;25.58;;;;;;;;;;5105188;28;20530;-74
2022/01/03 08:52:48;;;;;;;55.53;25.48;;;;;;;;;;5129070;27;20388;-74
2022/01/03 08:55:15;;;;;;;43.90;21.95;;;;;;;;;;5107724;27;20031;-74
2022/01/03 08:57:42;;;;;;;36.05;17.65;;;;;;;;;;5112412;27;20015;-74
2022/01/03 09:00:09;;;;;;;55.85;19.00;;;;;;;;;;5127100;27;20035;-73
2022/01/03 09:02:36;;;;;;;53.40;17.45;;;;;;;;;;5113961;27;20030;-74
2022/01/03 09:05:02;;;;;;;47.00;16.55;;;;;;;;;;5129669;27;20027;-74
2022/01/03 09:07:29;;;;;;;69.15;17.45;;;;;;;;;;5124687;27;20618;-75
2022/01/03 09:09:55;;;;;;;74.68;18.52;;;;;;;;;;5124035;27;20035;-74
2022/01/03 09:12:21;;;;;;;94.78;16.02;;;;;;;;;;5126843;27;20027;-75
2022/01/03 09:14:47;;;;;;;84.97;17.33;;;;;;;;;;5124413;27;20079;-74
2022/01/03 09:17:14;;;;;;;69.10;15.85;;;;;;;;;;5129621;27;20037;-74
2022/01/03 09:19:40;;;;;;;45.03;15.82;;;;;;;;;;5110893;28;20027;-73
2022/01/03 09:22:20;;;;;;;58.47;13.93;;;;;;;;;;5122731;27;20600;-75
2022/01/03 09:30:13;;;;;;;54.28;16.30;;;;;;;;;;5125870;28;20034;-74
2022/01/03 09:32:40;;;;;;;51.40;15.63;;;;;;;;;;5127161;28;20424;-74
2022/01/03 09:35:07;;;;;;;61.42;15.93;;;;;;;;;;5128504;28;20031;-74
2022/01/03 09:37:36;;;;;;;56.00;14.85;;;;;;;;;;5134582;27;20630;-74
2022/01/03 09:40:04;;;;;;;37.70;14.95;;;;;;;;;;5132812;27;20509;-74
2022/01/03 09:42:31;;;;;;;57.20;16.60;;;;;;;;;;5126947;28;20015;-75
2022/01/03 09:45:02;;;;;;;47.03;14.77;;;;;;;;;;5125913;28;20040;-74
2022/01/03 09:47:29;;;;;;;43.60;14.20;;;;;;;;;;5128087;27;20046;-74
2022/01/03 09:49:57;;;;;;;55.47;15.80;;;;;;;;;;5109920;28;20303;-73
2022/01/03 09:52:24;;;;;;;42.65;14.55;;;;;;;;;;5126866;28;20489;-74
2022/01/03 09:54:51;;;;;;;43.92;16.13;;;;;;;;;;5128069;27;20024;-75
2022/01/03 09:57:19;;;;;;;44.50;14.38;;;;;;;;;;5128395;27;20412;-74
2022/01/03 09:59:46;;;;;;;28.52;13.93;;;;;;;;;;5110659;28;20023;-75
2022/01/03 10:02:14;;;;;;;23.95;11.27;;;;;;;;;;5118451;28;20035;-74
2022/01/03 10:04:41;;;;;;;26.83;13.25;;;;;;;;;;5128195;28;20341;-74
2022/01/03 10:07:11;;;;;;;24.60;13.30;;;;;;;;;;5126447;28;20035;-74
2022/01/03 10:09:39;;;;;;;28.10;13.57;;;;;;;;;;5127741;28;20057;-74
2022/01/03 10:12:06;;;;;;;47.30;14.15;;;;;;;;;;5114092;27;20385;-75
2022/01/03 10:14:32;;;;;;;60.08;25.80;;;;;;;;;;5147679;27;20039;-75
2022/01/03 10:16:59;;;;;;;56.45;25.77;;;;;;;;;;5133054;27;20377;-74
2022/01/03 10:19:25;;;;;;;42.65;17.52;;;;;;;;;;5122360;27;20413;-74
2022/01/03 10:21:52;;;;;;;33.47;15.43;;;;;;;;;;5125216;27;20026;-74
2022/01/03 10:24:19;;;;;;;45.80;20.92;;;;;;;;;;5130787;27;20039;-74
2022/01/03 10:26:53;;;;;;;45.40;17.60;;;;;;;;;;5115008;27;20027;-75
2022/01/03 10:29:21;;;;;;;28.20;14.23;;;;;;;;;;5128145;27;20035;-74
2022/01/03 10:31:50;;;;;;;50.75;17.58;;;;;;;;;;5131638;27;20031;-75
2022/01/03 10:34:17;;;;;;;51.38;19.90;;;;;;;;;;5113976;27;20023;-75
2022/01/03 10:36:47;;;;;;;34.65;18.67;;;;;;;;;;5129419;27;20486;-74
2022/01/03 10:39:21;;;;;;;53.85;13.48;;;;;;;;;;5131092;27;20543;-74
2022/01/03 10:41:48;;;;;;;28.33;13.70;;;;;;;;;;5127795;27;20014;-74
2022/01/03 10:44:36;;;;;;;47.95;14.85;;;;;;;;;;5128660;27;20071;-74
2022/01/03 10:47:04;;;;;;;48.97;16.77;;;;;;;;;;5132266;27;20039;-74
2022/01/03 10:49:31;;;;;;;56.28;17.00;;;;;;;;;;5131168;27;20038;-75
2022/01/03 10:52:13;;;;;;;38.03;17.30;;;;;;;;;;5124958;27;20027;-74
2022/01/03 10:54:39;;;;;;;44.60;18.00;;;;;;;;;;5124046;27;20037;-75
2022/01/03 10:57:06;;;;;;;45.63;17.58;;;;;;;;;;5128401;27;20023;-75
2022/01/03 10:59:34;;;;;;;69.32;17.75;;;;;;;;;;5127413;27;20095;-75
2022/01/03 11:02:03;;;;;;;55.55;17.83;;;;;;;;;;5128122;27;20030;-75
2022/01/03 11:04:36;;;;;;;48.67;17.73;;;;;;;;;;5113143;27;20034;-75
2022/01/03 11:13:07;;;;;;;43.00;20.08;;;;;;;;;;5067326;28;20037;-74
2022/01/03 11:15:35;;;;;;;32.85;17.02;;;;;;;;;;5068281;28;20028;-75
2022/01/03 11:18:20;;;;;;;31.17;16.17;;;;;;;;;;5068861;28;20037;-74
2022/01/03 11:20:51;;;;;;;31.23;17.63;;;;;;;;;;5052735;28;20036;-75
2022/01/03 11:23:22;;;;;;;45.60;20.55;;;;;;;;;;5064469;28;20039;-74
2022/01/03 11:25:49;;;;;;;;;;;;;;;;;;5069124;28;20045;-74
2022/01/03 11:28:16;;;;;;;38.60;19.33;;;;;;;;;;5067722;28;19912;-74
2022/01/03 11:30:44;;;;;;;37.05;18.88;;;;;;;;;;5068580;28;20042;-74
2022/01/03 11:33:10;;;;;;;39.33;20.40;;;;;;;;;;5068769;28;20017;-73
2022/01/03 11:35:37;;;;;;;38.67;21.48;;;;;;;;;;5068652;28;20041;-75
2022/01/03 11:38:05;;;;;;;38.42;23.30;;;;;;;;;;5057480;28;20040;-74
2022/01/03 11:40:31;;;;;;;43.25;22.08;;;;;;;;;;5066793;28;20028;-74
2022/01/03 11:42:59;;;;;;;41.03;24.00;;;;;;;;;;5068839;28;20038;-75
2022/01/03 11:45:25;;;;;;;46.17;24.90;;;;;;;;;;5125820;27;20041;-75
2022/01/03 11:47:52;;;;;;;48.80;23.83;;;;;;;;;;5128572;27;20031;-74
2022/01/03 11:50:18;;;;;;;50.45;26.85;;;;;;;;;;5132328;27;20505;-74
2022/01/03 11:52:45;;;;;;;49.55;27.02;;;;;;;;;;5129181;27;20008;-76
2022/01/03 11:55:12;;;;;;;57.80;27.88;;;;;;;;;;5128532;27;20037;-74
2022/01/03 12:06:03;;;;;;;53.63;28.80;;;;;;;;;;5113975;27;20027;-74
2022/01/03 12:08:30;;;;;;;57.17;28.15;;;;;;;;;;5112670;27;20378;-75
2022/01/03 12:11:00;;;;;;;49.47;28.05;;;;;;;;;;5130029;27;20027;-74
2022/01/03 12:13:45;;;;;;;44.72;24.92;;;;;;;;;;5136712;27;20023;-74
2022/01/03 12:16:12;;;;;;;42.97;24.83;;;;;;;;;;5132777;27;20027;-74
2022/01/03 12:18:39;;;;;;;38.13;23.20;;;;;;;;;;5128208;27;20035;-74
2022/01/03 12:21:06;;;;;;;34.25;21.15;;;;;;;;;;5128489;27;20113;-74
2022/01/03 12:23:40;;;;;;;34.95;21.13;;;;;;;;;;5130447;27;20029;-74
2022/01/03 12:26:08;;;;;;;28.27;18.70;;;;;;;;;;5130242;27;20056;-74
2022/01/03 12:28:57;;;;;;;27.15;18.48;;;;;;;;;;5128090;27;20501;-74
2022/01/03 12:31:24;;;;;;;28.67;18.27;;;;;;;;;;5115306;27;20051;-74
2022/01/03 12:34:10;;;;;;;32.55;20.27;;;;;;;;;;5127276;27;20493;-74
2022/01/03 12:36:36;;;;;;;43.30;21.00;;;;;;;;;;5109857;27;20053;-74
2022/01/03 12:39:08;;;;;;;29.77;20.42;;;;;;;;;;5127249;27;20031;-74
2022/01/03 12:41:42;;;;;;;26.48;18.77;;;;;;;;;;5129685;27;20118;-74
2022/01/03 12:44:10;;;;;;;33.80;20.42;;;;;;;;;;5129938;27;20023;-74
2022/01/03 12:46:36;;;;;;;32.88;21.33;;;;;;;;;;5127746;27;20050;-74
2022/01/03 12:49:21;;;;;;;26.52;18.75;;;;;;;;;;5127848;27;20035;-74
2022/01/03 12:51:47;;;;;;;34.10;19.77;;;;;;;;;;5128295;27;20014;-74
2022/01/03 12:54:14;;;;;;;31.58;21.38;;;;;;;;;;5127821;27;20016;-74
2022/01/03 12:56:40;;;;;;;30.58;20.73;;;;;;;;;;5126356;27;20398;-74
2022/01/03 12:59:11;;;;;;;29.23;19.70;;;;;;;;;;5131463;27;20026;-74
2022/01/03 13:01:38;;;;;;;31.65;20.80;;;;;;;;;;5109246;27;20033;-74
2022/01/03 13:04:20;;;;;;;34.03;21.10;;;;;;;;;;5127989;27;20428;-74
2022/01/03 13:06:47;;;;;;;36.60;21.80;;;;;;;;;;5127143;27;20515;-74
2022/01/03 13:09:14;;;;;;;30.58;21.60;;;;;;;;;;5115104;27;20027;-74
2022/01/03 13:11:40;;;;;;;31.85;22.90;;;;;;;;;;5128833;27;20019;-74
2022/01/03 13:14:06;;;;;;;33.70;23.70;;;;;;;;;;5125965;27;20059;-74
2022/01/03 13:16:34;;;;;;;35.97;23.70;;;;;;;;;;5130688;27;20021;-73
2022/01/03 13:19:03;;;;;;;35.47;24.20;;;;;;;;;;5126874;28;20124;-74
2022/01/03 13:21:31;;;;;;;37.72;26.20;;;;;;;;;;5127603;28;20019;-74
2022/01/03 13:23:59;;;;;;;36.80;25.65;;;;;;;;;;5129157;28;20025;-74
2022/01/03 13:26:27;;;;;;;35.03;23.88;;;;;;;;;;5129726;28;20143;-74
2022/01/03 13:28:54;;;;;;;38.10;25.25;;;;;;;;;;5127361;28;20033;-74
2022/01/03 13:31:21;;;;;;;40.67;24.88;;;;;;;;;;5127741;28;20027;-75
2022/01/03 13:33:57;;;;;;;37.08;23.38;;;;;;;;;;5103619;28;20035;-73
2022/01/03 13:36:37;;;;;;;35.75;23.30;;;;;;;;;;5128327;28;20023;-74
2022/01/03 13:39:09;;;;;;;36.28;23.75;;;;;;;;;;5128528;28;20027;-73
2022/01/03 13:41:37;;;;;;;34.75;23.95;;;;;;;;;;5130783;27;20031;-74
2022/01/03 13:44:04;;;;;;;34.75;22.25;;;;;;;;;;5128175;28;20039;-72
2022/01/03 13:49:21;;;;;;;39.75;26.08;;;;;;;;;;5125277;27;20053;-73
2022/01/03 13:51:55;;;;;;;41.17;25.73;;;;;;;;;;5130335;27;20392;-74
2022/01/03 13:54:31;;;;;;;38.40;24.50;;;;;;;;;;5130950;27;20049;-74
2022/01/03 13:56:58;;;;;;;38.47;24.13;;;;;;;;;;5132399;27;20030;-74
2022/01/03 13:59:26;;;;;;;41.28;26.60;;;;;;;;;;5133940;27;20023;-74
2022/01/03 14:01:53;;;;;;;46.30;28.60;;;;;;;;;;5114282;27;20015;-75
2022/01/03 14:04:20;;;;;;;45.67;29.20;;;;;;;;;;5131079;27;20031;-73
2022/01/03 14:06:47;;;;;;;51.65;34.83;;;;;;;;;;5130493;27;20493;-74
2022/01/03 14:09:18;;;;;;;63.33;37.60;;;;;;;;;;5131129;27;20039;-73
2022/01/03 14:11:44;;;;;;;62.58;36.97;;;;;;;;;;5131387;27;20027;-73
2022/01/03 14:14:12;;;;;;;43.80;27.45;;;;;;;;;;5147634;27;20035;-74
2022/01/03 14:17:00;;;;;;;41.83;27.27;;;;;;;;;;5102213;27;20040;-74
2022/01/03 14:19:28;;;;;;;42.78;27.42;;;;;;;;;;5128665;27;20027;-74
2022/01/03 14:21:55;;;;;;;39.75;26.25;;;;;;;;;;5131219;27;20043;-74
2022/01/03 14:24:25;;;;;;;34.63;24.10;;;;;;;;;;5131071;27;20496;-74
2022/01/03 14:26:59;;;;;;;37.60;22.33;;;;;;;;;;5130907;27;20071;-73
2022/01/03 14:29:39;;;;;;;35.75;22.48;;;;;;;;;;5111617;27;20047;-74
2022/01/03 14:32:12;;;;;;;36.17;22.40;;;;;;;;;;5132955;27;20090;-73
2022/01/03 14:34:39;;;;;;;39.42;23.40;;;;;;;;;;5130028;27;20065;-74
2022/01/03 14:37:06;;;;;;;31.73;22.13;;;;;;;;;;5130173;27;20019;-72
2022/01/03 14:39:47;;;;;;;33.97;21.77;;;;;;;;;;5130827;27;20404;-73
2022/01/03 14:42:20;;;;;;;36.13;21.40;;;;;;;;;;5130618;27;20022;-74
2022/01/03 14:44:47;;;;;;;31.38;20.00;;;;;;;;;;5130562;27;20041;-74
2022/01/03 14:47:13;;;;;;;30.75;19.80;;;;;;;;;;5133671;27;20531;-73
2022/01/03 14:49:41;;;;;;;28.85;18.10;;;;;;;;;;5129570;27;20023;-74
2022/01/03 14:52:08;;;;;;;35.83;21.02;;;;;;;;;;5112179;27;20028;-74